sensor_id;sensor_type;location;lat;lon;timestamp;temperature;humidity
3312;DHT22;1668;49.648;8.570;2022-11-20T00:01:31;3.40;99.90
3312;DHT22;1668;49.648;8.570;2022-11-20T00:03:59;3.40;99.90
3312;DHT22;1668;49.648;8.570;2022-11-20T00:06:27;3.40;99.90
3312;DHT22;1668;49.648;8.570;2022-11-20T00:08:55;3.40;99.90
3312;DHT22;1668;49.648;8.570;2022-11-20T00:11:23;3.50;99.90
3312;DHT22;1668;49.648;8.570;2022-11-20T00:13:52;3.40;99.90
3312;DHT22;1668;49.648;8.570;2022-11-20T00:16:21;3.40;99.90
3312;DHT22;1668;49.648;8.570;2022-11-20T00:18:49;3.50;99.90
3312;DHT22;1668;49.648;8.570;2022-11-20T00:21:18;3.50;99.90
3312;DHT22;1668;49.648;8.570;2022-11-20T00:23:45;3.40;99.90
3312;DHT22;1668;49.648;8.570;2022-11-20T00:26:14;3.50;99.90
3312;DHT22;1668;49.648;8.570;2022-11-20T00:28:42;3.40;99.90
3312;DHT22;1668;49.648;8.570;2022-11-20T00:31:11;3.40;99.90
3312;DHT22;1668;49.648;8.570;2022-11-20T00:33:39;3.40;99.90
3312;DHT22;1668;49.648;8.570;2022-11-20T00:36:09;3.40;99.90
3312;DHT22;1668;49.648;8.570;2022-11-20T00:38:36;3.40;99.90
3312;DHT22;1668;49.648;8.570;2022-11-20T00:41:07;3.40;99.90
3312;DHT22;1668;49.648;8.570;2022-11-20T00:43:34;3.40;99.90
3312;DHT22;1668;49.648;8.570;2022-11-20T00:46:04;3.30;99.90
3312;DHT22;1668;49.648;8.570;2022-11-20T00:48:31;3.30;99.90
3312;DHT22;1668;49.648;8.570;2022-11-20T00:50:58;3.40;99.90
3312;DHT22;1668;49.648;8.570;2022-11-20T00:53:27;3.40;99.90
3312;DHT22;1668;49.648;8.570;2022-11-20T00:55:55;3.30;99.90
3312;DHT22;1668;49.648;8.570;2022-11-20T00:58:22;3.40;99.90
3312;DHT22;1668;49.648;8.570;2022-11-20T01:00:50;3.40;99.90
3312;DHT22;1668;49.648;8.570;2022-11-20T01:03:18;3.40;99.90
3312;DHT22;1668;49.648;8.570;2022-11-20T01:05:45;3.40;99.90
3312;DHT22;1668;49.648;8.570;2022-11-20T01:08:12;3.40;99.90
3312;DHT22;1668;49.648;8.570;2022-11-20T01:10:40;3.40;99.90
3312;DHT22;1668;49.648;8.570;2022-11-20T01:13:07;3.40;99.90
3312;DHT22;1668;49.648;8.570;2022-11-20T01:15:52;3.40;99.90
3312;DHT22;1668;49.648;8.570;2022-11-20T01:18:18;3.30;99.90
3312;DHT22;1668;49.648;8.570;2022-11-20T01:20:45;3.30;99.90
3312;DHT22;1668;49.648;8.570;2022-11-20T01:23:12;3.30;99.90
3312;DHT22;1668;49.648;8.570;2022-11-20T01:25:41;3.30;99.90
3312;DHT22;1668;49.648;8.570;2022-11-20T01:28:07;3.30;99.90
3312;DHT22;1668;49.648;8.570;2022-11-20T01:30:34;3.30;99.90
3312;DHT22;1668;49.648;8.570;2022-11-20T01:33:02;3.30;99.90
3312;DHT22;1668;49.648;8.570;2022-11-20T01:35:29;3.30;99.90
3312;DHT22;1668;49.648;8.570;2022-11-20T01:37:55;3.30;99.90
3312;DHT22;1668;49.648;8.570;2022-11-20T01:40:22;3.20;99.90
3312;DHT22;1668;49.648;8.570;2022-11-20T01:42:59;3.20;99.90
3312;DHT22;1668;49.648;8.570;2022-11-20T01:46:13;3.20;99.90
3312;DHT22;1668;49.648;8.570;2022-11-20T01:48:44;3.20;99.90
3312;DHT22;1668;49.648;8.570;2022-11-20T01:51:19;3.20;99.90
3312;DHT22;1668;49.648;8.570;2022-11-20T01:53:48;3.20;99.90
3312;DHT22;1668;49.648;8.570;2022-11-20T01:56:15;3.20;99.90
3312;DHT22;1668;49.648;8.570;2022-11-20T01:58:46;3.20;99.90
3312;DHT22;1668;49.648;8.570;2022-11-20T02:01:15;3.20;99.90
3312;DHT22;1668;49.648;8.570;2022-11-20T02:03:43;3.20;99.90
3312;DHT22;1668;49.648;8.570;2022-11-20T02:06:14;3.20;99.90
3312;DHT22;1668;49.648;8.570;2022-11-20T02:08:42;3.30;99.90
3312;DHT22;1668;49.648;8.570;2022-11-20T02:11:09;3.30;99.90
3312;DHT22;1668;49.648;8.570;2022-11-20T02:13:38;3.30;99.90
3312;DHT22;1668;49.648;8.570;2022-11-20T02:16:15;3.30;99.90
3312;DHT22;1668;49.648;8.570;2022-11-20T02:18:46;3.30;99.90
3312;DHT22;1668;49.648;8.570;2022-11-20T02:21:23;3.30;99.90
3312;DHT22;1668;49.648;8.570;2022-11-20T02:26:48;3.30;99.90
3312;DHT22;1668;49.648;8.570;2022-11-20T02:29:19;3.30;99.90
3312;DHT22;1668;49.648;8.570;2022-11-20T02:31:50;3.30;99.90
3312;DHT22;1668;49.648;8.570;2022-11-20T02:34:18;3.30;99.90
3312;DHT22;1668;49.648;8.570;2022-11-20T02:36:45;3.30;99.90
3312;DHT22;1668;49.648;8.570;2022-11-20T02:39:15;3.30;99.90
3312;DHT22;1668;49.648;8.570;2022-11-20T02:41:44;3.30;99.90
3312;DHT22;1668;49.648;8.570;2022-11-20T02:44:11;3.30;99.90
3312;DHT22;1668;49.648;8.570;2022-11-20T02:46:38;3.20;99.90
3312;DHT22;1668;49.648;8.570;2022-11-20T02:49:05;3.30;99.90
3312;DHT22;1668;49.648;8.570;2022-11-20T02:51:32;3.30;99.90
3312;DHT22;1668;49.648;8.570;2022-11-20T02:53:59;3.30;99.90
3312;DHT22;1668;49.648;8.570;2022-11-20T02:56:28;3.30;99.90
3312;DHT22;1668;49.648;8.570;2022-11-20T02:58:55;3.30;99.90
3312;DHT22;1668;49.648;8.570;2022-11-20T03:01:22;3.30;99.90
3312;DHT22;1668;49.648;8.570;2022-11-20T03:03:49;3.30;99.90
3312;DHT22;1668;49.648;8.570;2022-11-20T03:06:16;3.30;99.90
3312;DHT22;1668;49.648;8.570;2022-11-20T03:08:43;3.30;99.90
3312;DHT22;1668;49.648;8.570;2022-11-20T03:11:10;3.20;99.90
3312;DHT22;1668;49.648;8.570;2022-11-20T03:13:39;3.30;99.90
3312;DHT22;1668;49.648;8.570;2022-11-20T03:16:08;3.30;99.90
3312;DHT22;1668;49.648;8.570;2022-11-20T03:18:35;3.30;99.90
3312;DHT22;1668;49.648;8.570;2022-11-20T03:21:02;3.30;99.90
3312;DHT22;1668;49.648;8.570;2022-11-20T03:23:30;3.30;99.90
3312;DHT22;1668;49.648;8.570;2022-11-20T03:26:10;3.30;99.90
3312;DHT22;1668;49.648;8.570;2022-11-20T03:28:39;3.30;99.90
3312;DHT22;1668;49.648;8.570;2022-11-20T03:31:08;3.30;99.90
3312;DHT22;1668;49.648;8.570;2022-11-20T03:33:35;3.30;99.90
3312;DHT22;1668;49.648;8.570;2022-11-20T03:36:03;3.30;99.90
3312;DHT22;1668;49.648;8.570;2022-11-20T03:38:30;3.30;99.90
3312;DHT22;1668;49.648;8.570;2022-11-20T03:41:01;3.30;99.90
3312;DHT22;1668;49.648;8.570;2022-11-20T03:43:29;3.30;99.90
3312;DHT22;1668;49.648;8.570;2022-11-20T03:45:57;3.30;99.90
3312;DHT22;1668;49.648;8.570;2022-11-20T03:48:24;3.20;99.90
3312;DHT22;1668;49.648;8.570;2022-11-20T03:50:52;3.20;99.90
3312;DHT22;1668;49.648;8.570;2022-11-20T03:53:19;3.30;99.90
3312;DHT22;1668;49.648;8.570;2022-11-20T03:55:50;3.30;99.90
3312;DHT22;1668;49.648;8.570;2022-11-20T03:58:17;3.30;99.90
3312;DHT22;1668;49.648;8.570;2022-11-20T04:00:44;3.30;99.90
3312;DHT22;1668;49.648;8.570;2022-11-20T04:03:13;3.30;99.90
3312;DHT22;1668;49.648;8.570;2022-11-20T04:05:40;3.30;99.90
3312;DHT22;1668;49.648;8.570;2022-11-20T04:08:06;3.30;99.90
3312;DHT22;1668;49.648;8.570;2022-11-20T04:10:34;3.30;99.90
3312;DHT22;1668;49.648;8.570;2022-11-20T04:13:00;3.30;99.90
3312;DHT22;1668;49.648;8.570;2022-11-20T04:15:27;3.30;99.90
3312;DHT22;1668;49.648;8.570;2022-11-20T04:17:54;3.30;99.90
3312;DHT22;1668;49.648;8.570;2022-11-20T04:20:23;3.30;99.90
3312;DHT22;1668;49.648;8.570;2022-11-20T04:22:53;3.40;99.90
3312;DHT22;1668;49.648;8.570;2022-11-20T04:25:20;3.40;99.90
3312;DHT22;1668;49.648;8.570;2022-11-20T04:27:46;3.40;99.90
3312;DHT22;1668;49.648;8.570;2022-11-20T04:30:14;3.40;99.90
3312;DHT22;1668;49.648;8.570;2022-11-20T04:32:41;3.40;99.90
3312;DHT22;1668;49.648;8.570;2022-11-20T04:35:08;3.40;99.90
3312;DHT22;1668;49.648;8.570;2022-11-20T04:37:36;3.40;99.90
3312;DHT22;1668;49.648;8.570;2022-11-20T04:40:04;3.40;99.90
3312;DHT22;1668;49.648;8.570;2022-11-20T04:42:31;3.40;99.90
3312;DHT22;1668;49.648;8.570;2022-11-20T04:44:58;3.40;99.90
3312;DHT22;1668;49.648;8.570;2022-11-20T04:47:24;3.40;99.90
3312;DHT22;1668;49.648;8.570;2022-11-20T04:49:51;3.40;99.90
3312;DHT22;1668;49.648;8.570;2022-11-20T04:52:18;3.40;99.90
3312;DHT22;1668;49.648;8.570;2022-11-20T04:54:47;3.50;99.90
3312;DHT22;1668;49.648;8.570;2022-11-20T04:57:14;3.50;99.90
3312;DHT22;1668;49.648;8.570;2022-11-20T04:59:42;3.40;99.90
3312;DHT22;1668;49.648;8.570;2022-11-20T05:02:09;3.40;99.90
3312;DHT22;1668;49.648;8.570;2022-11-20T05:04:36;3.40;99.90
3312;DHT22;1668;49.648;8.570;2022-11-20T05:07:03;3.50;99.90
3312;DHT22;1668;49.648;8.570;2022-11-20T05:09:30;3.50;99.90
3312;DHT22;1668;49.648;8.570;2022-11-20T05:11:58;3.50;99.90
3312;DHT22;1668;49.648;8.570;2022-11-20T05:14:25;3.50;99.90
3312;DHT22;1668;49.648;8.570;2022-11-20T05:16:52;3.50;99.90
3312;DHT22;1668;49.648;8.570;2022-11-20T05:19:19;3.50;99.90
3312;DHT22;1668;49.648;8.570;2022-11-20T05:21:46;3.50;99.90
3312;DHT22;1668;49.648;8.570;2022-11-20T05:24:13;3.50;99.90
3312;DHT22;1668;49.648;8.570;2022-11-20T05:26:39;3.50;99.90
3312;DHT22;1668;49.648;8.570;2022-11-20T05:29:10;3.50;99.90
3312;DHT22;1668;49.648;8.570;2022-11-20T05:31:38;3.50;99.90
3312;DHT22;1668;49.648;8.570;2022-11-20T05:34:06;3.50;99.90
3312;DHT22;1668;49.648;8.570;2022-11-20T05:36:33;3.50;99.90
3312;DHT22;1668;49.648;8.570;2022-11-20T05:39:00;3.50;99.90
3312;DHT22;1668;49.648;8.570;2022-11-20T05:41:27;3.50;99.90
3312;DHT22;1668;49.648;8.570;2022-11-20T05:43:55;3.50;99.90
3312;DHT22;1668;49.648;8.570;2022-11-20T05:46:23;3.50;99.90
3312;DHT22;1668;49.648;8.570;2022-11-20T05:48:50;3.50;99.90
3312;DHT22;1668;49.648;8.570;2022-11-20T05:51:18;3.50;99.90
3312;DHT22;1668;49.648;8.570;2022-11-20T05:53:46;3.50;99.90
3312;DHT22;1668;49.648;8.570;2022-11-20T05:56:14;3.50;99.90
3312;DHT22;1668;49.648;8.570;2022-11-20T05:58:42;3.50;99.90
3312;DHT22;1668;49.648;8.570;2022-11-20T06:01:10;3.50;99.90
3312;DHT22;1668;49.648;8.570;2022-11-20T06:03:40;3.50;99.90
3312;DHT22;1668;49.648;8.570;2022-11-20T06:06:08;3.50;99.90
3312;DHT22;1668;49.648;8.570;2022-11-20T06:08:35;3.60;99.90
3312;DHT22;1668;49.648;8.570;2022-11-20T06:11:05;3.60;99.90
3312;DHT22;1668;49.648;8.570;2022-11-20T06:13:32;3.60;99.90
3312;DHT22;1668;49.648;8.570;2022-11-20T06:16:00;3.60;99.90
3312;DHT22;1668;49.648;8.570;2022-11-20T06:18:28;3.60;99.90
3312;DHT22;1668;49.648;8.570;2022-11-20T06:21:04;3.60;99.90
3312;DHT22;1668;49.648;8.570;2022-11-20T06:23:32;3.60;99.90
3312;DHT22;1668;49.648;8.570;2022-11-20T06:26:01;3.60;99.90
3312;DHT22;1668;49.648;8.570;2022-11-20T06:28:28;3.60;99.90
3312;DHT22;1668;49.648;8.570;2022-11-20T06:30:55;3.60;99.90
3312;DHT22;1668;49.648;8.570;2022-11-20T06:33:22;3.60;99.90
3312;DHT22;1668;49.648;8.570;2022-11-20T06:35:49;3.60;99.90
3312;DHT22;1668;49.648;8.570;2022-11-20T06:38:17;3.60;99.90
3312;DHT22;1668;49.648;8.570;2022-11-20T06:40:44;3.60;99.90
3312;DHT22;1668;49.648;8.570;2022-11-20T06:43:11;3.60;99.90
3312;DHT22;1668;49.648;8.570;2022-11-20T06:45:38;3.60;99.90
3312;DHT22;1668;49.648;8.570;2022-11-20T06:48:05;3.60;99.90
3312;DHT22;1668;49.648;8.570;2022-11-20T06:50:32;3.60;99.90
3312;DHT22;1668;49.648;8.570;2022-11-20T06:53:01;3.60;99.90
3312;DHT22;1668;49.648;8.570;2022-11-20T06:55:30;3.60;99.90
3312;DHT22;1668;49.648;8.570;2022-11-20T06:57:58;3.60;99.90
3312;DHT22;1668;49.648;8.570;2022-11-20T07:00:25;3.60;99.90
3312;DHT22;1668;49.648;8.570;2022-11-20T07:02:52;3.70;99.90
3312;DHT22;1668;49.648;8.570;2022-11-20T07:05:19;3.70;99.90
3312;DHT22;1668;49.648;8.570;2022-11-20T07:07:47;3.70;99.90
3312;DHT22;1668;49.648;8.570;2022-11-20T07:10:13;3.70;99.90
3312;DHT22;1668;49.648;8.570;2022-11-20T07:12:42;3.70;99.90
3312;DHT22;1668;49.648;8.570;2022-11-20T07:15:09;3.70;99.90
3312;DHT22;1668;49.648;8.570;2022-11-20T07:17:36;3.70;99.90
3312;DHT22;1668;49.648;8.570;2022-11-20T07:20:03;3.70;99.90
3312;DHT22;1668;49.648;8.570;2022-11-20T07:22:30;3.70;99.90
3312;DHT22;1668;49.648;8.570;2022-11-20T07:24:57;3.70;99.90
3312;DHT22;1668;49.648;8.570;2022-11-20T07:27:24;3.70;99.90
3312;DHT22;1668;49.648;8.570;2022-11-20T07:29:52;3.70;99.90
3312;DHT22;1668;49.648;8.570;2022-11-20T07:32:19;3.70;99.90
3312;DHT22;1668;49.648;8.570;2022-11-20T07:34:46;3.70;99.90
3312;DHT22;1668;49.648;8.570;2022-11-20T07:37:13;3.70;99.90
3312;DHT22;1668;49.648;8.570;2022-11-20T07:39:40;3.70;99.90
3312;DHT22;1668;49.648;8.570;2022-11-20T07:42:07;3.70;99.90
3312;DHT22;1668;49.648;8.570;2022-11-20T07:44:34;3.70;99.90
3312;DHT22;1668;49.648;8.570;2022-11-20T07:47:03;3.70;99.90
3312;DHT22;1668;49.648;8.570;2022-11-20T07:49:29;3.70;99.90
3312;DHT22;1668;49.648;8.570;2022-11-20T07:51:56;3.80;99.90
3312;DHT22;1668;49.648;8.570;2022-11-20T07:54:23;3.80;99.90
3312;DHT22;1668;49.648;8.570;2022-11-20T07:56:50;3.80;99.90
3312;DHT22;1668;49.648;8.570;2022-11-20T07:59:17;3.80;99.90
3312;DHT22;1668;49.648;8.570;2022-11-20T08:01:44;3.80;99.90
3312;DHT22;1668;49.648;8.570;2022-11-20T08:04:13;3.80;99.90
3312;DHT22;1668;49.648;8.570;2022-11-20T08:06:41;3.80;99.90
3312;DHT22;1668;49.648;8.570;2022-11-20T08:09:08;3.80;99.90
3312;DHT22;1668;49.648;8.570;2022-11-20T08:11:36;3.80;99.90
3312;DHT22;1668;49.648;8.570;2022-11-20T08:14:20;3.80;99.90
3312;DHT22;1668;49.648;8.570;2022-11-20T08:16:48;3.80;99.90
3312;DHT22;1668;49.648;8.570;2022-11-20T08:19:18;3.80;99.90
3312;DHT22;1668;49.648;8.570;2022-11-20T08:21:45;3.80;99.90
3312;DHT22;1668;49.648;8.570;2022-11-20T08:24:12;3.80;99.90
3312;DHT22;1668;49.648;8.570;2022-11-20T08:26:40;3.80;99.90
3312;DHT22;1668;49.648;8.570;2022-11-20T08:29:07;3.80;99.90
3312;DHT22;1668;49.648;8.570;2022-11-20T08:31:34;3.80;99.90
3312;DHT22;1668;49.648;8.570;2022-11-20T08:34:01;3.90;99.90
3312;DHT22;1668;49.648;8.570;2022-11-20T08:36:33;3.90;99.90
3312;DHT22;1668;49.648;8.570;2022-11-20T08:39:00;3.90;99.90
3312;DHT22;1668;49.648;8.570;2022-11-20T08:41:27;3.80;99.90
3312;DHT22;1668;49.648;8.570;2022-11-20T08:43:55;3.90;99.90
3312;DHT22;1668;49.648;8.570;2022-11-20T08:46:23;3.90;99.90
3312;DHT22;1668;49.648;8.570;2022-11-20T08:48:50;3.80;99.90
3312;DHT22;1668;49.648;8.570;2022-11-20T08:51:17;3.80;99.90
3312;DHT22;1668;49.648;8.570;2022-11-20T08:53:46;3.80;99.90
3312;DHT22;1668;49.648;8.570;2022-11-20T08:56:14;3.80;99.90
3312;DHT22;1668;49.648;8.570;2022-11-20T08:58:41;3.80;99.90
3312;DHT22;1668;49.648;8.570;2022-11-20T09:01:08;3.80;99.90
3312;DHT22;1668;49.648;8.570;2022-11-20T09:03:34;3.80;99.90
3312;DHT22;1668;49.648;8.570;2022-11-20T09:06:03;3.80;99.90
3312;DHT22;1668;49.648;8.570;2022-11-20T09:08:31;3.80;99.90
3312;DHT22;1668;49.648;8.570;2022-11-20T09:10:59;3.80;99.90
3312;DHT22;1668;49.648;8.570;2022-11-20T09:13:29;3.80;99.90
3312;DHT22;1668;49.648;8.570;2022-11-20T09:15:57;3.80;99.90
3312;DHT22;1668;49.648;8.570;2022-11-20T09:18:25;3.80;99.90
3312;DHT22;1668;49.648;8.570;2022-11-20T09:20:56;3.80;99.90
3312;DHT22;1668;49.648;8.570;2022-11-20T09:23:23;3.80;99.90
3312;DHT22;1668;49.648;8.570;2022-11-20T09:25:50;3.80;99.90
3312;DHT22;1668;49.648;8.570;2022-11-20T09:28:19;3.80;99.90
3312;DHT22;1668;49.648;8.570;2022-11-20T09:30:46;3.90;99.90
3312;DHT22;1668;49.648;8.570;2022-11-20T09:33:13;3.90;99.90
3312;DHT22;1668;49.648;8.570;2022-11-20T09:35:39;3.90;99.90
3312;DHT22;1668;49.648;8.570;2022-11-20T09:38:06;3.90;99.90
3312;DHT22;1668;49.648;8.570;2022-11-20T09:40:36;3.90;99.90
3312;DHT22;1668;49.648;8.570;2022-11-20T09:43:11;3.90;99.90
3312;DHT22;1668;49.648;8.570;2022-11-20T09:45:54;4.00;99.90
3312;DHT22;1668;49.648;8.570;2022-11-20T09:48:55;4.00;99.90
3312;DHT22;1668;49.648;8.570;2022-11-20T09:51:36;4.00;99.90
3312;DHT22;1668;49.648;8.570;2022-11-20T09:54:15;4.00;99.90
3312;DHT22;1668;49.648;8.570;2022-11-20T09:56:45;4.00;99.90
3312;DHT22;1668;49.648;8.570;2022-11-20T09:59:25;4.00;99.90
3312;DHT22;1668;49.648;8.570;2022-11-20T10:01:56;4.00;99.90
3312;DHT22;1668;49.648;8.570;2022-11-20T10:04:23;4.00;99.90
3312;DHT22;1668;49.648;8.570;2022-11-20T10:06:59;4.10;99.90
3312;DHT22;1668;49.648;8.570;2022-11-20T10:09:30;4.10;99.90
3312;DHT22;1668;49.648;8.570;2022-11-20T10:12:09;4.10;99.90
3312;DHT22;1668;49.648;8.570;2022-11-20T10:14:51;4.10;99.90
3312;DHT22;1668;49.648;8.570;2022-11-20T10:17:29;4.10;99.90
3312;DHT22;1668;49.648;8.570;2022-11-20T10:20:14;4.10;99.90
3312;DHT22;1668;49.648;8.570;2022-11-20T10:22:52;4.20;99.90
3312;DHT22;1668;49.648;8.570;2022-11-20T10:25:34;4.20;99.90
3312;DHT22;1668;49.648;8.570;2022-11-20T10:28:25;4.20;99.90
3312;DHT22;1668;49.648;8.570;2022-11-20T10:31:00;4.20;99.90
3312;DHT22;1668;49.648;8.570;2022-11-20T10:33:34;4.20;99.90
3312;DHT22;1668;49.648;8.570;2022-11-20T10:36:11;4.20;99.90
3312;DHT22;1668;49.648;8.570;2022-11-20T10:38:42;4.20;99.90
3312;DHT22;1668;49.648;8.570;2022-11-20T10:41:16;4.20;99.90
3312;DHT22;1668;49.648;8.570;2022-11-20T10:44:03;4.30;99.90
3312;DHT22;1668;49.648;8.570;2022-11-20T10:46:37;4.30;99.90
3312;DHT22;1668;49.648;8.570;2022-11-20T10:49:13;4.30;99.90
3312;DHT22;1668;49.648;8.570;2022-11-20T10:51:52;4.30;99.90
3312;DHT22;1668;49.648;8.570;2022-11-20T10:54:29;4.30;99.90
3312;DHT22;1668;49.648;8.570;2022-11-20T10:57:03;4.30;99.90
3312;DHT22;1668;49.648;8.570;2022-11-20T11:02:39;4.30;99.90
3312;DHT22;1668;49.648;8.570;2022-11-20T11:05:22;4.30;99.90
3312;DHT22;1668;49.648;8.570;2022-11-20T11:07:54;4.40;99.90
3312;DHT22;1668;49.648;8.570;2022-11-20T11:10:24;4.40;99.90
3312;DHT22;1668;49.648;8.570;2022-11-20T11:12:52;4.40;99.90
3312;DHT22;1668;49.648;8.570;2022-11-20T11:15:26;4.40;99.90
3312;DHT22;1668;49.648;8.570;2022-11-20T11:17:53;4.50;99.90
3312;DHT22;1668;49.648;8.570;2022-11-20T11:20:22;4.50;99.90
3312;DHT22;1668;49.648;8.570;2022-11-20T11:22:51;4.50;99.90
3312;DHT22;1668;49.648;8.570;2022-11-20T11:25:21;4.60;99.90
3312;DHT22;1668;49.648;8.570;2022-11-20T11:27:50;4.60;99.90
3312;DHT22;1668;49.648;8.570;2022-11-20T11:30:18;4.60;99.90
3312;DHT22;1668;49.648;8.570;2022-11-20T11:32:46;4.60;99.90
3312;DHT22;1668;49.648;8.570;2022-11-20T11:35:23;4.60;99.90
3312;DHT22;1668;49.648;8.570;2022-11-20T11:37:52;4.60;99.90
3312;DHT22;1668;49.648;8.570;2022-11-20T11:40:21;4.60;99.90
3312;DHT22;1668;49.648;8.570;2022-11-20T11:42:55;4.60;99.90
3312;DHT22;1668;49.648;8.570;2022-11-20T11:45:23;4.70;99.90
3312;DHT22;1668;49.648;8.570;2022-11-20T11:47:50;4.70;99.90
3312;DHT22;1668;49.648;8.570;2022-11-20T11:50:21;4.70;99.90
3312;DHT22;1668;49.648;8.570;2022-11-20T11:52:55;4.80;99.90
3312;DHT22;1668;49.648;8.570;2022-11-20T11:55:31;4.80;99.90
3312;DHT22;1668;49.648;8.570;2022-11-20T11:58:14;4.80;99.90
3312;DHT22;1668;49.648;8.570;2022-11-20T12:00:50;4.80;99.90
3312;DHT22;1668;49.648;8.570;2022-11-20T12:03:21;4.90;99.90
3312;DHT22;1668;49.648;8.570;2022-11-20T12:05:53;4.90;99.90
3312;DHT22;1668;49.648;8.570;2022-11-20T12:08:28;4.90;99.90
3312;DHT22;1668;49.648;8.570;2022-11-20T12:11:01;4.90;99.90
3312;DHT22;1668;49.648;8.570;2022-11-20T12:13:42;4.90;99.90
3312;DHT22;1668;49.648;8.570;2022-11-20T12:16:13;4.90;99.90
3312;DHT22;1668;49.648;8.570;2022-11-20T12:18:41;4.90;99.90
3312;DHT22;1668;49.648;8.570;2022-11-20T12:21:19;5.00;99.90
3312;DHT22;1668;49.648;8.570;2022-11-20T12:24:10;5.00;99.90
3312;DHT22;1668;49.648;8.570;2022-11-20T12:26:59;5.00;99.90
3312;DHT22;1668;49.648;8.570;2022-11-20T12:29:37;5.10;99.90
3312;DHT22;1668;49.648;8.570;2022-11-20T12:32:45;5.10;99.90
3312;DHT22;1668;49.648;8.570;2022-11-20T12:35:30;5.20;99.90
3312;DHT22;1668;49.648;8.570;2022-11-20T12:38:11;5.20;99.90
3312;DHT22;1668;49.648;8.570;2022-11-20T12:40:46;5.20;99.90
3312;DHT22;1668;49.648;8.570;2022-11-20T12:43:19;5.20;99.90
3312;DHT22;1668;49.648;8.570;2022-11-20T12:46:13;5.20;99.90
3312;DHT22;1668;49.648;8.570;2022-11-20T12:49:03;5.20;99.90
3312;DHT22;1668;49.648;8.570;2022-11-20T12:51:58;5.20;99.90
3312;DHT22;1668;49.648;8.570;2022-11-20T12:54:57;5.30;99.90
3312;DHT22;1668;49.648;8.570;2022-11-20T12:57:37;5.30;99.90
3312;DHT22;1668;49.648;8.570;2022-11-20T13:00:14;5.30;99.90
3312;DHT22;1668;49.648;8.570;2022-11-20T13:05:38;5.40;99.90
3312;DHT22;1668;49.648;8.570;2022-11-20T13:08:14;5.50;99.90
3312;DHT22;1668;49.648;8.570;2022-11-20T13:10:48;5.50;99.90
3312;DHT22;1668;49.648;8.570;2022-11-20T13:13:23;5.60;99.90
3312;DHT22;1668;49.648;8.570;2022-11-20T13:15:55;5.60;99.90
3312;DHT22;1668;49.648;8.570;2022-11-20T13:18:24;5.60;99.90
3312;DHT22;1668;49.648;8.570;2022-11-20T13:20:51;5.60;99.90
3312;DHT22;1668;49.648;8.570;2022-11-20T13:23:26;5.60;99.90
3312;DHT22;1668;49.648;8.570;2022-11-20T13:26:13;5.70;99.90
3312;DHT22;1668;49.648;8.570;2022-11-20T13:28:42;5.70;99.90
3312;DHT22;1668;49.648;8.570;2022-11-20T13:31:21;5.70;99.90
3312;DHT22;1668;49.648;8.570;2022-11-20T13:33:52;5.70;99.90
3312;DHT22;1668;49.648;8.570;2022-11-20T13:36:24;5.80;99.90
3312;DHT22;1668;49.648;8.570;2022-11-20T13:38:52;5.80;99.90
3312;DHT22;1668;49.648;8.570;2022-11-20T13:41:24;5.80;99.90
3312;DHT22;1668;49.648;8.570;2022-11-20T13:44:09;5.80;99.90
3312;DHT22;1668;49.648;8.570;2022-11-20T13:46:39;5.90;99.90
3312;DHT22;1668;49.648;8.570;2022-11-20T13:49:18;5.90;99.90
3312;DHT22;1668;49.648;8.570;2022-11-20T13:51:49;5.90;99.90
3312;DHT22;1668;49.648;8.570;2022-11-20T13:54:32;5.90;99.90
3312;DHT22;1668;49.648;8.570;2022-11-20T13:57:15;6.00;99.90
3312;DHT22;1668;49.648;8.570;2022-11-20T13:59:56;6.00;99.90
3312;DHT22;1668;49.648;8.570;2022-11-20T14:02:26;6.00;99.90
3312;DHT22;1668;49.648;8.570;2022-11-20T14:04:56;6.10;99.90
3312;DHT22;1668;49.648;8.570;2022-11-20T14:07:32;6.10;99.90
3312;DHT22;1668;49.648;8.570;2022-11-20T14:10:01;6.10;99.90
3312;DHT22;1668;49.648;8.570;2022-11-20T14:12:30;6.20;99.90
3312;DHT22;1668;49.648;8.570;2022-11-20T14:14:59;6.20;99.90
3312;DHT22;1668;49.648;8.570;2022-11-20T14:17:31;6.20;99.90
3312;DHT22;1668;49.648;8.570;2022-11-20T14:20:00;6.20;99.90
3312;DHT22;1668;49.648;8.570;2022-11-20T14:22:28;6.20;99.90
3312;DHT22;1668;49.648;8.570;2022-11-20T14:25:05;6.20;99.90
3312;DHT22;1668;49.648;8.570;2022-11-20T14:27:34;6.20;99.90
3312;DHT22;1668;49.648;8.570;2022-11-20T14:30:05;6.20;99.90
3312;DHT22;1668;49.648;8.570;2022-11-20T14:32:35;6.20;99.90
3312;DHT22;1668;49.648;8.570;2022-11-20T14:35:07;6.20;99.90
3312;DHT22;1668;49.648;8.570;2022-11-20T14:37:37;6.20;99.90
3312;DHT22;1668;49.648;8.570;2022-11-20T14:40:23;6.20;99.90
3312;DHT22;1668;49.648;8.570;2022-11-20T14:42:52;6.20;99.90
3312;DHT22;1668;49.648;8.570;2022-11-20T14:45:23;6.20;99.90
3312;DHT22;1668;49.648;8.570;2022-11-20T14:47:56;6.20;99.90
3312;DHT22;1668;49.648;8.570;2022-11-20T14:50:28;6.20;99.90
3312;DHT22;1668;49.648;8.570;2022-11-20T14:52:58;6.20;99.90
3312;DHT22;1668;49.648;8.570;2022-11-20T14:57:58;6.20;99.90
3312;DHT22;1668;49.648;8.570;2022-11-20T15:00:27;6.20;99.90
3312;DHT22;1668;49.648;8.570;2022-11-20T15:02:55;6.20;99.90
3312;DHT22;1668;49.648;8.570;2022-11-20T15:05:25;6.20;99.90
3312;DHT22;1668;49.648;8.570;2022-11-20T15:08:07;6.20;99.90
3312;DHT22;1668;49.648;8.570;2022-11-20T15:10:34;6.10;99.90
3312;DHT22;1668;49.648;8.570;2022-11-20T15:13:03;6.20;99.90
3312;DHT22;1668;49.648;8.570;2022-11-20T15:15:36;6.10;99.90
3312;DHT22;1668;49.648;8.570;2022-11-20T15:18:10;6.10;99.90
3312;DHT22;1668;49.648;8.570;2022-11-20T15:20:38;6.10;99.90
3312;DHT22;1668;49.648;8.570;2022-11-20T15:23:09;6.10;99.90
3312;DHT22;1668;49.648;8.570;2022-11-20T15:25:38;6.10;99.90
3312;DHT22;1668;49.648;8.570;2022-11-20T15:28:15;6.10;99.90
3312;DHT22;1668;49.648;8.570;2022-11-20T15:30:44;6.10;99.90
3312;DHT22;1668;49.648;8.570;2022-11-20T15:33:12;6.10;99.90
3312;DHT22;1668;49.648;8.570;2022-11-20T15:35:40;6.00;99.90
3312;DHT22;1668;49.648;8.570;2022-11-20T15:38:07;6.00;99.90
3312;DHT22;1668;49.648;8.570;2022-11-20T15:40:34;6.00;99.90
3312;DHT22;1668;49.648;8.570;2022-11-20T15:43:01;6.00;99.90
3312;DHT22;1668;49.648;8.570;2022-11-20T15:45:38;6.00;99.90
3312;DHT22;1668;49.648;8.570;2022-11-20T15:48:09;6.00;99.90
3312;DHT22;1668;49.648;8.570;2022-11-20T15:50:39;6.00;99.90
3312;DHT22;1668;49.648;8.570;2022-11-20T15:53:09;6.00;99.90
3312;DHT22;1668;49.648;8.570;2022-11-20T15:55:36;6.00;99.90
3312;DHT22;1668;49.648;8.570;2022-11-20T15:58:03;6.00;99.90
3312;DHT22;1668;49.648;8.570;2022-11-20T16:00:30;6.00;99.90
3312;DHT22;1668;49.648;8.570;2022-11-20T16:02:57;6.00;99.90
3312;DHT22;1668;49.648;8.570;2022-11-20T16:05:28;5.90;99.90
3312;DHT22;1668;49.648;8.570;2022-11-20T16:07:55;5.90;99.90
3312;DHT22;1668;49.648;8.570;2022-11-20T16:10:21;5.90;99.90
3312;DHT22;1668;49.648;8.570;2022-11-20T16:12:49;5.90;99.90
3312;DHT22;1668;49.648;8.570;2022-11-20T16:15:42;5.90;99.90
3312;DHT22;1668;49.648;8.570;2022-11-20T16:18:13;5.90;99.90
3312;DHT22;1668;49.648;8.570;2022-11-20T16:20:42;5.90;99.90
3312;DHT22;1668;49.648;8.570;2022-11-20T16:23:09;5.90;99.90
3312;DHT22;1668;49.648;8.570;2022-11-20T16:25:35;5.90;99.90
3312;DHT22;1668;49.648;8.570;2022-11-20T16:28:03;5.90;99.90
3312;DHT22;1668;49.648;8.570;2022-11-20T16:30:31;5.90;99.90
3312;DHT22;1668;49.648;8.570;2022-11-20T16:32:57;5.90;99.90
3312;DHT22;1668;49.648;8.570;2022-11-20T16:35:25;5.90;99.90
3312;DHT22;1668;49.648;8.570;2022-11-20T16:37:54;5.90;99.90
3312;DHT22;1668;49.648;8.570;2022-11-20T16:40:22;5.90;99.90
3312;DHT22;1668;49.648;8.570;2022-11-20T16:42:49;5.90;99.90
3312;DHT22;1668;49.648;8.570;2022-11-20T16:45:16;5.90;99.90
3312;DHT22;1668;49.648;8.570;2022-11-20T16:47:43;5.90;99.90
3312;DHT22;1668;49.648;8.570;2022-11-20T16:50:10;5.90;99.90